Seattle, Washington
Traffic Map
Current Weather Conditions
Seattle, Washington
Overcast
Overcast
56°
Feels Like: 56°
Wind Chill: 56° Ceiling: 1100
Heat Index: 56° Visibility: 10mi
Dew Point: 49° Wind: 5mph
Humidity: 77% Direction: 190° (S)
Pressure: 30.16in Gusts: 0mph
Raw Report DataKBFI 241453Z 19004KT 10SM OVC011 13/09 A3016 RMK AO2 SLP212 T01330094 53001
Traffic Incident Summary
Active as of:
Severity:
Category:
InformationThere was an issue retrieving the traffic information for this location. Please try a different location or try again shortly.
Advertisements
Track Severe Weather on mobile